Time;durP1;ratioP1;P1;durP2;ratioP2;P2;SDS_P1;SDS_P2;PMS_P1;PMS_P2;Temp;Humidity;BMP_temperature;BMP_pressure;BME280_temperature;BME280_humidity;BME280_pressure;Samples;Min_cycle;Max_cycle;Signal;HPM_P1;HPM_P2
2022/03/28 00:02:08;;;;;;;31.83;16.50;;;10.50;88.60;;;7.91;88.75;101596.84;5056981;28;20143;-81
2022/03/28 00:04:35;;;;;;;29.42;15.88;;;10.50;88.60;;;7.76;89.87;101602.66;5068896;28;20491;-81
2022/03/28 00:07:03;;;;;;;31.25;15.63;;;10.50;88.60;;;7.75;89.88;101598.25;5051871;28;20068;-81
2022/03/28 00:09:30;;;;;;;31.13;16.27;;;10.50;88.70;;;7.63;90.87;101594.81;5056953;28;20505;-81
2022/03/28 00:11:59;;;;;;;29.45;15.65;;;10.50;88.90;;;7.54;91.63;101589.34;5047874;28;20076;-81
2022/03/28 00:14:26;;;;;;;29.90;16.42;;;10.40;88.90;;;7.43;92.21;101593.88;5049767;28;20119;-81
2022/03/28 00:16:55;;;;;;;26.48;15.32;;;10.40;88.90;;;7.35;92.41;101591.00;5057423;28;20119;-81
2022/03/28 00:19:22;;;;;;;30.95;16.48;;;10.40;89.10;;;7.31;92.86;101584.16;5068672;28;20040;-82
2022/03/28 00:21:50;;;;;;;32.13;16.48;;;10.30;89.20;;;7.27;92.94;101588.09;5059502;28;20037;-81
2022/03/28 00:24:17;;;;;;;29.05;15.93;;;10.30;89.10;;;7.29;92.82;101579.84;5054573;28;20455;-81
2022/03/28 00:26:44;;;;;;;29.38;16.65;;;10.20;89.20;;;7.34;92.89;101575.75;5048515;28;20033;-81
2022/03/28 00:29:15;;;;;;;33.13;16.45;;;10.20;89.40;;;7.33;92.07;101570.47;5048323;28;20045;-81
2022/03/28 00:31:42;;;;;;;27.45;15.82;;;10.20;89.30;;;7.32;92.33;101574.19;5047869;28;20501;-81
2022/03/28 00:34:10;;;;;;;30.75;15.50;;;10.20;89.40;;;7.30;92.64;101570.75;5048293;28;20068;-81
2022/03/28 00:36:37;;;;;;;32.08;15.95;;;10.10;89.60;;;7.33;93.37;101581.28;5048423;28;20119;-81
2022/03/28 00:39:04;;;;;;;29.33;16.40;;;10.10;90.00;;;7.28;93.21;101573.59;5048503;28;20412;-81
2022/03/28 00:41:31;;;;;;;29.05;16.13;;;10.10;90.10;;;7.26;93.54;101567.47;5047569;28;20466;-81
2022/03/28 00:44:00;;;;;;;31.90;16.67;;;10.10;90.10;;;7.21;93.55;101556.16;5055396;28;20134;-81
2022/03/28 00:46:29;;;;;;;33.97;16.85;;;10.10;90.30;;;7.23;93.55;101562.31;5048556;28;20512;-81
2022/03/28 00:48:56;;;;;;;28.98;15.07;;;10.00;90.20;;;7.27;93.73;101561.03;5068348;28;20074;-81
2022/03/28 00:51:24;;;;;;;30.48;16.85;;;10.00;90.30;;;7.19;94.04;101556.31;5061939;28;20078;-81
2022/03/28 00:53:52;;;;;;;31.35;16.08;;;10.00;90.20;;;7.13;94.23;101553.31;5052068;28;20037;-81
2022/03/28 00:56:20;;;;;;;33.25;16.60;;;10.00;90.40;;;7.15;93.88;101556.72;5070915;28;20068;-81
2022/03/28 00:58:47;;;;;;;32.05;16.05;;;9.90;90.50;;;7.04;94.24;101560.38;5067119;28;20044;-81
2022/03/28 01:01:15;;;;;;;31.65;16.27;;;9.90;90.60;;;7.04;94.96;101563.97;5061884;28;20049;-81
2022/03/28 01:03:44;;;;;;;32.25;16.55;;;9.90;90.70;;;7.13;94.26;101553.31;5070449;28;20036;-81
2022/03/28 01:06:12;;;;;;;28.65;15.27;;;9.90;91.00;;;6.94;95.35;101554.91;5061866;28;20493;-81
2022/03/28 01:08:40;;;;;;;28.25;16.23;;;9.80;90.90;;;6.98;94.51;101541.97;5051532;28;20049;-81
2022/03/28 01:11:10;;;;;;;29.77;16.17;;;9.80;91.00;;;6.88;94.97;101541.94;5050892;28;20049;-81
2022/03/28 01:13:40;;;;;;;31.10;17.13;;;9.80;90.80;;;6.86;95.29;101535.81;5051458;28;20044;-81
2022/03/28 01:16:08;;;;;;;29.23;16.02;;;9.80;91.10;;;6.88;95.39;101536.53;5051277;28;20055;-81
2022/03/28 01:18:36;;;;;;;30.98;15.35;;;9.80;91.00;;;6.82;95.56;101535.22;5060585;28;20106;-81
2022/03/28 01:21:06;;;;;;;30.13;15.70;;;9.70;91.10;;;6.84;95.58;101533.22;5050840;28;20041;-81
2022/03/28 01:23:33;;;;;;;33.17;15.77;;;9.70;91.20;;;6.80;96.02;101531.78;5052739;28;20048;-81
2022/03/28 01:26:00;;;;;;;28.02;14.43;;;9.70;91.20;;;6.77;95.63;101531.19;5070841;28;20226;-81
2022/03/28 01:28:28;;;;;;;29.08;15.68;;;9.70;91.40;;;6.61;96.93;101527.13;5059467;28;20110;-81
2022/03/28 01:30:56;;;;;;;31.10;15.25;;;9.60;91.50;;;6.63;96.62;101521.59;5051847;28;20144;-81
2022/03/28 01:33:24;;;;;;;31.40;16.08;;;9.60;91.50;;;6.60;96.78;101511.03;5062001;28;20405;-81
2022/03/28 01:35:52;;;;;;;27.95;16.20;;;9.50;91.70;;;6.49;97.30;101511.97;5058625;28;20045;-81
2022/03/28 01:38:22;;;;;;;30.17;15.88;;;9.50;91.60;;;6.56;97.07;101507.75;5052796;28;20045;-81
2022/03/28 01:40:52;;;;;;;31.55;15.70;;;9.50;91.90;;;6.63;97.36;101508.94;5070431;28;20512;-81
2022/03/28 01:43:21;;;;;;;32.47;15.93;;;9.50;91.90;;;6.55;97.45;101506.03;5069727;28;20115;-81
2022/03/28 01:45:50;;;;;;;29.13;15.77;;;9.40;91.90;;;6.52;97.51;101505.44;5068051;28;20128;-81
2022/03/28 01:48:18;;;;;;;31.88;16.13;;;9.40;91.90;;;6.41;97.38;101504.53;5057712;28;20062;-81
2022/03/28 01:50:45;;;;;;;30.70;15.50;;;9.40;91.80;;;6.45;97.01;101500.59;5060698;28;20033;-81
2022/03/28 01:53:12;;;;;;;31.00;16.15;;;9.40;91.80;;;6.39;98.24;101500.25;5061902;28;20040;-81
2022/03/28 01:55:41;;;;;;;29.90;15.93;;;9.40;91.90;;;6.30;98.98;101495.63;5069880;28;20044;-81
2022/03/28 01:58:08;;;;;;;31.40;15.98;;;9.30;92.10;;;6.28;99.00;101493.06;5056901;28;20056;-81
2022/03/28 02:00:36;;;;;;;30.00;14.93;;;9.30;92.20;;;6.24;98.98;101486.19;5065476;28;20771;-81
2022/03/28 02:03:03;;;;;;;30.20;16.20;;;9.30;92.40;;;6.37;98.21;101486.00;5070750;28;20048;-81
2022/03/28 02:05:30;;;;;;;32.00;16.73;;;9.30;92.40;;;6.39;97.83;101478.63;5060735;28;20043;-81
2022/03/28 02:07:59;;;;;;;33.28;16.25;;;9.30;92.60;;;6.38;98.40;101483.19;5056995;28;20063;-81
2022/03/28 02:10:27;;;;;;;32.05;17.08;;;9.20;92.50;;;6.46;97.95;101485.22;5050061;28;20049;-81
2022/03/28 02:12:56;;;;;;;29.30;16.25;;;9.20;92.60;;;6.49;97.07;101474.09;5064708;28;20124;-81
2022/03/28 02:15:24;;;;;;;31.58;16.60;;;9.20;92.70;;;6.46;98.26;101479.81;5065313;28;20405;-81
2022/03/28 02:17:51;;;;;;;33.50;17.00;;;9.20;92.70;;;6.45;97.76;101475.38;5052912;28;20041;-81
2022/03/28 02:20:19;;;;;;;31.13;16.70;;;9.20;92.80;;;6.41;98.58;101477.47;5049688;28;20464;-80
2022/03/28 02:22:48;;;;;;;32.35;16.55;;;9.20;92.90;;;6.42;97.97;101473.81;5050143;28;20036;-81
2022/03/28 02:25:16;;;;;;;30.33;16.08;;;9.20;92.80;;;6.32;98.91;101467.50;5057386;28;20041;-81
2022/03/28 02:27:44;;;;;;;34.42;16.92;;;9.20;92.60;;;6.30;99.44;101469.44;5054008;28;20518;-81
2022/03/28 02:30:15;;;;;;;32.58;16.67;;;9.30;92.80;;;6.36;98.46;101468.06;5053047;28;20045;-81
2022/03/28 02:32:42;;;;;;;32.65;16.88;;;9.20;92.90;;;6.36;98.54;101468.94;5061100;28;20060;-81
2022/03/28 02:35:11;;;;;;;30.13;15.93;;;9.20;92.90;;;6.28;98.71;101459.75;5064923;28;20056;-81
2022/03/28 02:37:39;;;;;;;34.45;16.52;;;9.20;93.00;;;6.26;99.43;101454.50;5050145;28;20128;-81
2022/03/28 02:40:08;;;;;;;30.65;16.23;;;9.30;93.20;;;6.22;99.42;101451.19;5064419;28;20098;-81
2022/03/28 02:42:35;;;;;;;31.23;16.77;;;9.20;93.20;;;6.25;98.85;101450.94;5062094;28;20044;-81
2022/03/28 02:45:03;;;;;;;30.73;16.05;;;9.10;93.20;;;6.16;99.38;101446.31;5057729;28;20042;-81
2022/03/28 02:47:32;;;;;;;34.17;16.67;;;9.10;93.00;;;6.11;99.29;101439.59;5051745;28;20099;-81
2022/03/28 02:49:59;;;;;;;32.38;16.15;;;9.10;93.00;;;6.08;99.94;101440.72;5056495;28;20049;-81
2022/03/28 02:52:27;;;;;;;34.55;16.63;;;9.10;93.10;;;6.02;100.00;101433.16;5061853;28;20222;-81
2022/03/28 02:54:54;;;;;;;31.88;17.10;;;9.00;93.10;;;5.95;100.00;101437.34;5049683;28;20048;-81
2022/03/28 02:57:22;;;;;;;36.17;16.67;;;9.00;93.00;;;5.98;100.00;101439.81;5065567;28;20052;-81
2022/03/28 02:59:49;;;;;;;29.45;15.75;;;9.00;93.10;;;6.07;100.00;101445.28;5059855;28;20037;-81
2022/03/28 03:02:16;;;;;;;31.05;15.55;;;9.00;93.20;;;6.04;99.79;101436.59;5057712;28;20045;-81
2022/03/28 03:04:45;;;;;;;32.05;16.98;;;9.00;93.30;;;6.07;100.00;101441.72;5049786;28;20080;-81
2022/03/28 03:07:12;;;;;;;30.90;16.60;;;9.00;93.50;;;5.99;100.00;101428.88;5055712;28;20071;-81
2022/03/28 03:09:39;;;;;;;30.10;16.27;;;8.90;93.60;;;5.96;100.00;101425.56;5068017;28;20083;-81
2022/03/28 03:12:08;;;;;;;30.48;15.95;;;8.90;93.60;;;5.96;100.00;101422.88;5052064;28;20088;-81
2022/03/28 03:14:35;;;;;;;31.58;16.75;;;8.90;93.80;;;5.85;100.00;101424.63;5049404;28;20124;-81
2022/03/28 03:17:03;;;;;;;29.90;15.43;;;8.90;93.70;;;5.78;100.00;101425.28;5055581;28;20098;-81
2022/03/28 03:19:30;;;;;;;28.55;16.10;;;8.90;93.80;;;5.66;100.00;101416.38;5051179;28;20055;-81
2022/03/28 03:21:59;;;;;;;28.02;15.38;;;8.80;93.70;;;5.70;100.00;101417.84;5048420;28;20121;-81
2022/03/28 03:24:26;;;;;;;29.88;15.77;;;8.80;93.80;;;5.76;100.00;101416.44;5063212;28;20134;-81
2022/03/28 03:26:53;;;;;;;31.77;15.75;;;8.80;93.80;;;5.72;100.00;101410.44;5055078;28;20029;-81
2022/03/28 03:29:21;;;;;;;29.67;15.73;;;8.80;93.90;;;5.73;100.00;101406.78;5069152;28;20135;-81
2022/03/28 03:31:48;;;;;;;27.10;15.65;;;8.80;93.90;;;5.80;100.00;101402.53;5051297;28;20045;-81
2022/03/28 03:34:15;;;;;;;28.83;15.07;;;8.80;94.00;;;5.77;100.00;101402.81;5053209;28;20057;-81
2022/03/28 03:36:42;;;;;;;28.88;15.32;;;8.70;94.00;;;5.68;100.00;101400.91;5059431;28;20048;-81
2022/03/28 03:39:11;;;;;;;29.63;16.00;;;8.70;94.20;;;5.64;100.00;101402.16;5068218;28;20051;-81
2022/03/28 03:41:38;;;;;;;29.65;15.30;;;8.70;94.20;;;5.57;100.00;101403.66;5052393;28;20072;-81
2022/03/28 03:44:06;;;;;;;30.63;15.85;;;8.70;94.10;;;5.61;100.00;101413.22;5053509;28;20202;-81
2022/03/28 03:46:33;;;;;;;29.02;14.65;;;8.70;94.20;;;5.63;100.00;101403.97;5052542;28;20568;-81
2022/03/28 03:49:01;;;;;;;24.63;14.57;;;8.60;94.20;;;5.63;100.00;101401.28;5068968;28;20072;-81
2022/03/28 03:51:28;;;;;;;31.90;15.23;;;8.60;94.30;;;5.55;100.00;101392.13;5053781;28;20055;-81
2022/03/28 03:53:55;;;;;;;31.90;16.63;;;8.60;94.30;;;5.63;100.00;101397.72;5052023;28;20079;-81
2022/03/28 03:56:24;;;;;;;28.55;16.08;;;8.60;94.40;;;5.64;100.00;101394.91;5060747;28;20493;-81
2022/03/28 03:58:51;;;;;;;29.05;15.10;;;8.60;94.40;;;5.58;100.00;101395.44;5050186;28;20044;-81
2022/03/28 04:01:18;;;;;;;27.83;14.50;;;8.60;94.30;;;5.46;100.00;101397.34;5049349;28;20127;-81
2022/03/28 04:03:45;;;;;;;30.40;15.68;;;8.60;94.30;;;5.47;100.00;101390.09;5048858;28;20115;-81
2022/03/28 04:06:13;;;;;;;30.88;15.90;;;8.50;94.50;;;5.46;100.00;101385.66;5063452;28;20507;-81
2022/03/28 04:08:40;;;;;;;29.40;15.23;;;8.50;94.40;;;5.49;100.00;101380.00;5063897;28;20120;-81
2022/03/28 04:11:07;;;;;;;28.48;15.65;;;8.50;94.60;;;5.50;100.00;101384.41;5063162;28;20071;-81
2022/03/28 04:13:37;;;;;;;31.05;15.63;;;8.50;94.70;;;5.51;100.00;101379.88;5053764;28;20087;-81
2022/03/28 04:16:05;;;;;;;29.70;15.40;;;8.40;94.70;;;5.52;100.00;101381.59;5056986;28;20631;-81
2022/03/28 04:18:35;;;;;;;29.67;15.93;;;8.40;94.90;;;5.35;100.00;101385.72;5048498;28;20041;-81
2022/03/28 04:21:02;;;;;;;31.67;16.38;;;8.50;95.00;;;5.28;100.00;101380.84;5063620;28;20044;-81
2022/03/28 04:23:30;;;;;;;27.45;15.25;;;8.40;94.90;;;5.21;100.00;101384.16;5064535;28;20033;-81
2022/03/28 04:25:57;;;;;;;29.05;15.43;;;8.40;94.70;;;5.20;100.00;101379.78;5054691;28;20043;-81
2022/03/28 04:28:24;;;;;;;28.42;15.57;;;8.40;94.80;;;5.22;100.00;101383.22;5052564;28;20409;-81
2022/03/28 04:30:53;;;;;;;29.38;15.52;;;8.30;94.90;;;5.17;100.00;101383.56;5056580;28;20044;-81
2022/03/28 04:33:20;;;;;;;26.30;14.70;;;8.30;94.90;;;5.20;100.00;101393.28;5064028;28;20052;-81
2022/03/28 04:35:48;;;;;;;29.58;15.30;;;8.30;95.00;;;5.12;100.00;101384.94;5071481;28;20040;-81
2022/03/28 04:38:15;;;;;;;27.75;15.13;;;8.30;95.10;;;5.11;100.00;101388.63;5070496;28;20646;-81
2022/03/28 04:40:43;;;;;;;30.83;16.52;;;8.20;95.10;;;5.13;100.00;101390.22;5070452;28;20055;-81
2022/03/28 04:43:10;;;;;;;28.45;15.45;;;8.20;95.20;;;5.21;100.00;101389.56;5054983;28;20123;-81
2022/03/28 04:45:37;;;;;;;26.20;14.80;;;8.20;95.40;;;5.23;100.00;101382.19;5061147;28;20044;-81
2022/03/28 04:48:06;;;;;;;28.80;15.57;;;8.20;95.50;;;5.15;100.00;101385.53;5058032;28;20128;-81
2022/03/28 04:50:34;;;;;;;32.42;16.13;;;8.20;95.40;;;5.18;100.00;101385.28;5055467;28;20044;-81
2022/03/28 04:53:01;;;;;;;32.70;17.10;;;8.20;95.60;;;5.22;100.00;101384.06;5051992;28;20405;-81
2022/03/28 04:55:29;;;;;;;29.70;16.13;;;8.20;95.60;;;5.27;100.00;101384.53;5053298;28;20045;-81
2022/03/28 04:57:56;;;;;;;31.50;16.25;;;8.20;95.80;;;5.18;100.00;101385.28;5054541;28;20044;-81
2022/03/28 05:00:23;;;;;;;30.38;16.33;;;8.20;95.80;;;5.19;100.00;101383.44;5070904;28;20045;-81
2022/03/28 05:02:50;;;;;;;32.00;16.70;;;8.20;95.90;;;5.10;100.00;101387.75;5060065;28;20060;-81
2022/03/28 05:05:19;;;;;;;29.88;16.45;;;8.20;95.80;;;5.05;100.00;101382.75;5060203;28;20119;-81
2022/03/28 05:07:46;;;;;;;29.98;15.77;;;8.20;95.70;;;5.06;100.00;101387.19;5051776;28;20045;-81
2022/03/28 05:10:13;;;;;;;29.80;15.55;;;8.20;95.60;;;5.06;100.00;101380.91;5064334;28;20055;-79
2022/03/28 05:12:41;;;;;;;29.77;15.18;;;8.20;95.60;;;4.96;100.00;101385.38;5064710;28;20043;-78
2022/03/28 05:15:09;;;;;;;29.75;15.70;;;8.20;95.60;;;4.90;100.00;101378.63;5053362;28;20041;-84
2022/03/28 05:17:37;;;;;;;27.90;15.18;;;8.10;95.70;;;4.86;100.00;101382.56;5051195;28;20037;-83
2022/03/28 05:20:08;;;;;;;31.83;15.93;;;8.10;95.70;;;4.94;100.00;101382.78;5050020;28;20076;-84
2022/03/28 05:22:37;;;;;;;28.05;15.05;;;8.10;95.70;;;4.96;100.00;101372.72;5067944;28;20036;-86
2022/03/28 05:25:07;;;;;;;29.70;15.63;;;8.10;95.90;;;4.99;100.00;101374.31;5051567;28;20045;-85
2022/03/28 05:27:44;;;;;;;31.20;15.25;;;8.10;95.80;;;5.04;100.00;101375.63;5056642;28;20094;-86
2022/03/28 05:30:12;;;;;;;31.10;15.60;;;8.10;96.00;;;5.13;100.00;101368.63;5070421;28;20129;-86
2022/03/28 05:32:40;;;;;;;28.50;15.20;;;8.10;96.00;;;5.05;100.00;101369.28;5053662;28;20044;-88
2022/03/28 05:35:09;;;;;;;28.95;15.38;;;8.10;95.90;;;5.01;100.00;101357.03;5057997;28;20497;-86
2022/03/28 05:37:38;;;;;;;34.90;15.57;;;8.10;95.90;;;5.07;100.00;101361.91;5060451;28;20044;-86
2022/03/28 05:40:10;;;;;;;34.75;16.15;;;8.10;96.00;;;5.13;100.00;101371.31;5052153;28;20056;-84
2022/03/28 05:42:37;;;;;;;38.92;16.33;;;8.10;96.00;;;5.18;100.00;101366.41;5050672;28;20052;-85
2022/03/28 05:45:05;;;;;;;38.40;16.27;;;8.20;96.00;;;5.24;100.00;101359.63;5050930;28;20051;-85
2022/03/28 05:47:32;;;;;;;45.35;17.60;;;8.20;96.30;;;5.30;100.00;101361.81;5051013;28;20102;-85
2022/03/28 05:50:00;;;;;;;41.95;16.58;;;8.20;96.20;;;5.38;100.00;101359.31;5051102;28;20051;-85
2022/03/28 05:52:27;;;;;;;43.10;16.98;;;8.20;96.20;;;5.43;100.00;101367.88;5050137;28;20057;-84
2022/03/28 05:54:56;;;;;;;40.92;16.77;;;8.20;96.40;;;5.41;100.00;101367.16;5059783;28;20036;-82
2022/03/28 05:57:23;;;;;;;34.38;16.23;;;8.20;96.40;;;5.41;100.00;101359.06;5053859;28;20097;-81
2022/03/28 05:59:51;;;;;;;44.67;15.70;;;8.30;96.70;;;5.51;100.00;101367.25;5069359;28;20123;-82
2022/03/28 06:02:18;;;;;;;39.72;16.88;;;8.30;96.70;;;5.46;100.00;101361.38;5067134;28;20044;-81
2022/03/28 06:04:45;;;;;;;35.25;16.70;;;8.30;96.60;;;5.43;100.00;101359.78;5068207;28;20127;-80
2022/03/28 06:07:12;;;;;;;36.83;16.25;;;8.30;96.50;;;5.48;100.00;101357.56;5050703;28;20335;-79
2022/03/28 06:09:40;;;;;;;44.20;17.17;;;8.40;96.70;;;5.60;100.00;101357.50;5061494;28;20288;-79
2022/03/28 06:12:10;;;;;;;37.30;15.55;;;8.40;96.70;;;5.68;100.00;101357.69;5070013;28;20048;-79
2022/03/28 06:14:37;;;;;;;40.10;15.88;;;8.40;96.40;;;5.67;100.00;101353.28;5058829;28;20516;-79
2022/03/28 06:17:05;;;;;;;40.17;16.60;;;8.50;96.70;;;5.72;100.00;101353.72;5051532;28;20072;-80
2022/03/28 06:19:32;;;;;;;38.55;16.52;;;8.50;96.40;;;5.83;100.00;101355.53;5064575;28;20064;-81
2022/03/28 06:21:59;;;;;;;45.40;16.73;;;8.60;96.60;;;5.91;100.00;101352.16;5056893;28;20070;-79
2022/03/28 06:24:26;;;;;;;38.90;16.63;;;8.60;96.40;;;6.01;100.00;101347.69;5059813;28;20075;-83
2022/03/28 06:26:54;;;;;;;33.90;15.77;;;8.70;96.30;;;6.08;100.00;101348.84;5065083;28;20528;-82
2022/03/28 06:29:22;;;;;;;39.15;17.15;;;8.70;96.40;;;6.15;100.00;101352.75;5054459;28;20119;-83
2022/03/28 06:31:49;;;;;;;34.83;16.33;;;8.80;96.20;;;6.23;100.00;101354.75;5063801;28;20082;-83
2022/03/28 06:34:17;;;;;;;32.45;16.88;;;8.90;96.50;;;6.28;100.00;101346.22;5053685;28;20516;-83
2022/03/28 06:36:45;;;;;;;36.72;17.80;;;8.90;96.80;;;6.38;100.00;101348.00;5066231;28;20449;-81
2022/03/28 06:39:13;;;;;;;34.45;15.80;;;9.00;96.70;;;6.46;100.00;101348.16;5058980;28;20132;-81
2022/03/28 06:41:41;;;;;;;38.05;16.52;;;9.00;97.20;;;6.56;100.00;101337.34;5049271;28;20052;-82
2022/03/28 06:44:11;;;;;;;35.20;16.85;;;9.10;97.50;;;6.73;100.00;101335.00;5048372;28;20053;-82
2022/03/28 06:46:42;;;;;;;37.90;17.23;;;9.10;97.10;;;6.86;100.00;101330.16;5054452;28;20040;-82
2022/03/28 06:49:11;;;;;;;35.88;18.58;;;9.20;96.70;;;6.93;100.00;101336.75;5062888;28;20071;-81
2022/03/28 06:51:39;;;;;;;34.83;18.42;;;9.30;96.70;;;7.02;100.00;101333.16;5066924;28;20036;-80
2022/03/28 06:54:08;;;;;;;35.95;18.80;;;9.40;96.70;;;7.08;100.00;101329.03;5068234;28;20063;-81
2022/03/28 06:56:37;;;;;;;37.40;19.48;;;9.40;96.40;;;7.20;100.00;101327.91;5062308;28;20037;-81
2022/03/28 06:59:04;;;;;;;38.35;18.48;;;9.50;96.60;;;7.23;100.00;101324.94;5060827;28;20127;-80
2022/03/28 07:01:31;;;;;;;38.03;19.42;;;9.50;96.10;;;7.32;100.00;101328.63;5050056;28;20148;-81
2022/03/28 07:04:00;;;;;;;40.45;17.88;;;9.60;96.10;;;7.47;100.00;101328.19;5055028;28;20053;-81
2022/03/28 07:06:27;;;;;;;39.30;18.83;;;9.70;96.00;;;7.70;100.00;101317.88;5051161;28;20141;-81
2022/03/28 07:08:54;;;;;;;38.78;19.42;;;9.80;95.90;;;7.86;99.07;101314.56;5051780;28;20501;-81
2022/03/28 07:11:22;;;;;;;38.65;19.00;;;9.90;95.40;;;7.90;100.00;101318.66;5055555;28;20505;-81
2022/03/28 07:13:49;;;;;;;47.22;21.55;;;9.90;96.00;;;8.03;98.67;101313.78;5053900;28;20049;-81
2022/03/28 07:16:16;;;;;;;39.78;20.10;;;10.00;95.50;;;8.16;98.54;101308.03;5053053;28;20044;-81
2022/03/28 07:18:43;;;;;;;47.13;22.90;;;10.10;95.60;;;8.27;97.33;101309.69;5051108;28;20136;-81
2022/03/28 07:21:12;;;;;;;43.67;21.33;;;10.10;95.30;;;8.37;97.48;101308.63;5056931;28;20049;-81
2022/03/28 07:23:39;;;;;;;40.75;19.77;;;10.30;95.20;;;8.49;96.72;101309.34;5068569;28;20071;-81
2022/03/28 07:26:08;;;;;;;39.20;19.65;;;10.30;94.90;;;8.53;96.81;101304.44;5063375;28;20041;-81
2022/03/28 07:28:39;;;;;;;41.88;19.65;;;10.40;94.90;;;8.62;96.39;101303.53;5068368;28;20119;-85
2022/03/28 07:31:08;;;;;;;43.00;19.60;;;10.50;94.90;;;8.75;95.48;101308.59;5057779;28;20049;-84
2022/03/28 07:33:36;;;;;;;43.00;19.95;;;10.50;94.80;;;8.86;95.39;101300.22;5056806;28;20043;-83
2022/03/28 07:36:04;;;;;;;43.42;19.85;;;10.60;94.60;;;9.02;95.11;101298.69;5064760;28;20144;-85
2022/03/28 07:38:33;;;;;;;49.05;20.15;;;10.70;94.50;;;9.15;95.06;101301.84;5054032;28;20489;-84
2022/03/28 07:41:00;;;;;;;38.28;20.40;;;10.80;94.60;;;9.26;94.45;101290.75;5048310;28;20117;-84
2022/03/28 07:43:27;;;;;;;42.83;19.75;;;10.90;94.60;;;9.36;93.99;101296.94;5047742;28;20045;-84
2022/03/28 07:45:55;;;;;;;37.35;19.90;;;11.00;94.20;;;9.49;94.04;101290.25;5051268;28;20041;-84
2022/03/28 07:48:23;;;;;;;50.45;22.67;;;11.10;94.40;;;9.62;93.27;101292.56;5068766;28;20548;-84
2022/03/28 07:50:50;;;;;;;48.97;23.02;;;11.20;93.90;;;9.73;92.28;101281.44;5067186;28;20041;-84
2022/03/28 07:53:18;;;;;;;50.20;24.70;;;11.30;93.70;;;9.84;92.00;101285.72;5056550;28;20057;-84
2022/03/28 07:55:47;;;;;;;50.45;24.23;;;11.30;93.40;;;9.95;91.75;101274.56;5054362;28;20049;-84
2022/03/28 07:58:14;;;;;;;43.63;23.27;;;11.50;93.30;;;10.11;91.94;101273.78;5088058;28;20115;-85
2022/03/28 08:00:41;;;;;;;44.85;23.20;;;11.50;93.50;;;10.24;91.67;101270.63;5071399;28;20053;-82
2022/03/28 08:03:09;;;;;;;42.72;22.40;;;11.70;93.80;;;10.34;92.00;101274.97;5054025;28;20033;-82
2022/03/28 08:05:39;;;;;;;42.35;22.02;;;11.80;93.70;;;10.46;91.28;101270.06;5052724;28;20554;-82
2022/03/28 08:08:08;;;;;;;45.25;22.15;;;11.90;93.40;;;10.59;90.96;101263.31;5058098;28;20040;-82
2022/03/28 08:10:36;;;;;;;38.85;21.45;;;12.00;93.20;;;10.74;91.22;101261.63;5059318;28;20192;-82
2022/03/28 08:13:05;;;;;;;43.72;23.20;;;12.10;93.60;;;10.90;91.05;101253.47;5060811;28;20053;-81
2022/03/28 08:15:35;;;;;;;41.58;23.17;;;12.20;93.90;;;11.02;90.61;101251.25;5063246;28;20068;-81
2022/03/28 08:18:02;;;;;;;37.35;20.98;;;12.30;93.70;;;11.10;90.09;101253.13;5083256;28;20059;-81
2022/03/28 08:20:29;;;;;;;40.83;23.40;;;12.40;93.10;;;11.26;90.23;101252.31;5070926;28;20140;-82
2022/03/28 08:22:59;;;;;;;43.03;21.63;;;12.50;93.40;;;11.38;90.20;101240.03;5071231;28;20669;-82
2022/03/28 08:25:26;;;;;;;40.63;22.83;;;12.60;93.40;;;11.52;89.73;101241.22;5071712;28;20047;-82
2022/03/28 08:27:53;;;;;;;41.92;21.75;;;12.70;93.40;;;11.67;90.52;101239.47;5061045;28;20098;-81
2022/03/28 08:30:22;;;;;;;43.65;22.42;;;12.80;94.10;;;11.80;90.06;101243.53;5058316;28;20676;-81
2022/03/28 08:32:49;;;;;;;42.45;21.35;;;13.00;93.90;;;11.87;89.80;101234.47;5069096;28;20048;-82
2022/03/28 08:35:17;;;;;;;37.88;21.13;;;13.00;93.50;;;12.02;90.86;101237.34;5066640;28;20040;-82
2022/03/28 08:37:44;;;;;;;37.10;23.13;;;13.10;95.60;;;12.15;91.37;101225.00;5065533;28;20040;-82
2022/03/28 08:40:14;;;;;;;40.22;22.25;;;13.30;95.80;;;12.29;91.66;101229.72;5057961;28;20053;-81
2022/03/28 08:42:42;;;;;;;36.05;21.40;;;13.50;95.30;;;12.38;92.09;101220.47;5069892;28;20052;-82
2022/03/28 08:45:14;;;;;;;37.78;20.88;;;13.60;95.60;;;12.51;92.00;101223.47;5062080;28;20802;-82
2022/03/28 08:47:45;;;;;;;36.78;22.45;;;13.70;95.00;;;12.58;91.67;101223.56;5056615;28;20466;-82
2022/03/28 08:50:14;;;;;;;36.63;21.80;;;13.80;94.80;;;12.67;92.48;101224.38;5060758;28;20037;-82
2022/03/28 08:52:42;;;;;;;35.53;20.42;;;14.00;95.10;;;12.77;91.68;101213.22;5071517;28;20165;-82
2022/03/28 08:55:11;;;;;;;35.45;21.98;;;14.10;94.10;;;12.87;91.68;101214.69;5072301;28;20055;-82
2022/03/28 08:57:40;;;;;;;39.22;21.45;;;14.20;93.90;;;12.97;91.05;101214.44;5055650;28;20119;-83
2022/03/28 09:00:11;;;;;;;41.78;24.00;;;14.30;93.90;;;13.07;89.89;101215.03;5054516;28;20041;-83
2022/03/28 09:02:46;;;;;;;38.05;21.30;;;14.30;92.20;;;13.13;89.63;101213.44;5065480;28;20049;-82
2022/03/28 09:05:14;;;;;;;37.38;22.70;;;14.40;92.50;;;13.18;89.06;101208.28;5051468;28;20047;-82
2022/03/28 09:07:42;;;;;;;39.47;22.92;;;14.50;92.00;;;13.28;88.96;101214.31;5051394;28;20047;-82
2022/03/28 09:10:15;;;;;;;36.92;21.83;;;14.60;92.10;;;13.39;88.58;101207.59;5054074;28;20049;-82
2022/03/28 09:12:59;;;;;;;38.92;22.33;;;14.60;92.10;;;13.42;88.21;101207.22;5071821;28;20047;-82
2022/03/28 09:15:41;;;;;;;36.85;21.50;;;14.70;91.70;;;13.41;86.80;101205.53;5051634;28;20049;-82
2022/03/28 09:18:19;;;;;;;;;;;14.70;91.00;;;13.47;87.59;101199.28;5062796;28;20041;-82
2022/03/28 09:20:49;;;;;;;37.30;22.30;;;14.80;91.20;;;13.53;87.25;101197.69;5061233;28;20019;-81
2022/03/28 09:23:42;;;;;;;40.28;23.08;;;14.80;91.10;;;13.62;88.13;101193.84;5057781;28;20588;-83
2022/03/28 09:26:13;;;;;;;37.20;22.80;;;14.90;92.40;;;13.69;87.46;101186.59;5036965;28;20512;-83
2022/03/28 09:28:47;;;;;;;;;;;15.00;91.60;;;13.73;86.22;101186.19;5058963;28;20036;-83
2022/03/28 09:31:25;;;;;;;41.47;22.67;;;15.00;89.60;;;13.79;87.75;101186.31;5054503;28;19920;-83
2022/03/28 09:34:09;;;;;;;39.17;22.30;;;15.10;92.80;;;13.91;86.46;101183.09;5063293;28;20075;-83
2022/03/28 09:36:51;;;;;;;38.38;22.85;;;15.20;90.50;;;13.96;85.94;101175.16;5060408;28;20045;-83
2022/03/28 09:39:21;;;;;;;40.58;22.42;;;15.20;90.00;;;13.99;83.58;101172.03;5070788;28;20136;-83
2022/03/28 09:42:04;;;;;;;35.80;21.03;;;15.30;88.80;;;14.04;83.86;101175.88;5065758;28;20032;-83
2022/03/28 09:44:43;;;;;;;36.10;22.25;;;15.30;88.20;;;14.11;83.17;101172.38;5071181;28;20128;-84
2022/03/28 09:47:13;;;;;;;40.15;22.60;;;15.40;87.90;;;14.14;83.01;101177.47;5051225;28;20064;-83
2022/03/28 09:49:45;;;;;;;38.80;22.73;;;15.40;88.10;;;14.15;82.20;101168.25;5063897;28;20075;-84
2022/03/28 09:52:15;;;;;;;40.33;22.63;;;15.40;87.40;;;14.19;82.04;101166.81;5060541;28;20426;-84
2022/03/28 09:54:50;;;;;;;39.10;22.30;;;15.50;87.90;;;14.19;81.13;101159.44;5053332;28;20465;-83
2022/03/28 09:57:22;;;;;;;37.30;21.80;;;15.50;86.90;;;14.25;80.34;101161.41;5050803;28;20594;-83
2022/03/28 09:59:49;;;;;;;40.22;23.67;;;15.50;87.00;;;14.23;80.06;101154.44;5066922;28;20040;-83
2022/03/28 10:02:20;;;;;;;37.78;23.42;;;15.50;86.80;;;14.15;80.35;101155.41;5056862;28;20824;-82
2022/03/28 10:04:51;;;;;;;42.55;24.20;;;15.50;86.00;;;14.22;80.99;101142.63;5059336;28;20051;-83
2022/03/28 10:07:19;;;;;;;;;;;15.50;87.00;;;14.27;80.13;101142.03;5051287;28;20114;-82
2022/03/28 10:09:47;;;;;;;38.95;22.83;;;15.50;86.70;;;14.26;79.88;101149.41;5055532;28;19928;-83
2022/03/28 10:12:15;;;;;;;42.85;23.95;;;15.60;86.40;;;14.33;80.15;101138.53;5067382;28;20041;-82
2022/03/28 10:14:44;;;;;;;41.78;24.77;;;15.60;86.50;;;14.37;79.88;101139.84;5058938;28;20037;-82